createdAt,value
2019-03-25T00:00:22.993Z,3.80
2019-03-25T00:01:23.071Z,4.10
2019-03-25T00:02:23.288Z,3.90
2019-03-25T00:03:23.466Z,3.40
2019-03-25T00:04:23.671Z,3.80
2019-03-25T00:05:23.912Z,3.50
2019-03-25T00:06:23.981Z,4.00
2019-03-25T00:07:24.146Z,3.60
2019-03-25T00:08:24.323Z,3.60
2019-03-25T00:09:24.477Z,4.20
2019-03-25T00:10:24.666Z,3.50
2019-03-25T00:11:24.840Z,3.40
2019-03-25T00:12:25.148Z,3.40
2019-03-25T00:13:25.200Z,3.30
2019-03-25T00:14:25.357Z,3.50
2019-03-25T00:15:25.556Z,3.80
2019-03-25T00:16:25.766Z,3.30
2019-03-25T00:17:25.933Z,3.50
2019-03-25T00:18:26.082Z,3.40
2019-03-25T00:19:26.270Z,3.80
2019-03-25T00:20:26.446Z,3.70
2019-03-25T00:21:26.678Z,4.20
2019-03-25T00:22:26.738Z,3.40
2019-03-25T00:23:26.941Z,3.40
2019-03-25T00:24:37.939Z,3.80
2019-03-25T00:25:27.306Z,3.70
2019-03-25T00:26:27.456Z,3.60
2019-03-25T00:27:27.624Z,4.10
2019-03-25T00:28:27.859Z,3.90
2019-03-25T00:29:27.947Z,4.10
2019-03-25T00:30:28.159Z,3.70
2019-03-25T00:31:28.207Z,3.70
2019-03-25T00:32:28.387Z,3.50
2019-03-25T00:33:28.639Z,3.90
2019-03-25T00:34:28.672Z,3.70
2019-03-25T00:35:28.850Z,4.00
2019-03-25T00:36:29.051Z,3.90
2019-03-25T00:37:29.219Z,4.10
2019-03-25T00:38:29.383Z,3.70
2019-03-25T00:39:29.562Z,4.00
2019-03-25T00:40:29.767Z,4.40
2019-03-25T00:41:29.944Z,4.40
2019-03-25T00:42:30.143Z,4.10
2019-03-25T00:43:30.215Z,3.60
2019-03-25T00:44:30.404Z,3.80
2019-03-25T00:45:30.561Z,3.60
2019-03-25T00:46:30.758Z,3.70
2019-03-25T00:47:30.974Z,3.90
2019-03-25T00:48:31.189Z,3.80
2019-03-25T00:49:31.265Z,3.90
2019-03-25T00:50:31.401Z,3.70
2019-03-25T00:51:31.607Z,4.00
2019-03-25T00:52:31.739Z,3.40
2019-03-25T00:53:31.939Z,3.60
2019-03-25T00:54:32.140Z,3.60
2019-03-25T00:55:32.331Z,3.60
2019-03-25T00:56:32.525Z,4.10
2019-03-25T00:57:32.744Z,3.40
2019-03-25T00:58:32.971Z,3.50
2019-03-25T00:59:33.147Z,3.90
2019-03-25T01:00:33.331Z,3.50
2019-03-25T01:01:33.517Z,3.70
2019-03-25T01:02:33.743Z,3.40
2019-03-25T01:03:33.939Z,3.60
2019-03-25T01:04:34.048Z,3.40
2019-03-25T01:05:34.230Z,3.70
2019-03-25T01:06:34.382Z,3.20
2019-03-25T01:07:34.584Z,3.20
2019-03-25T01:08:34.749Z,3.50
2019-03-25T01:09:34.955Z,3.10
2019-03-25T01:10:34.997Z,3.20
2019-03-25T01:11:35.188Z,3.10
2019-03-25T01:12:35.428Z,3.20
2019-03-25T01:13:35.506Z,3.20
2019-03-25T01:14:35.703Z,3.20
2019-03-25T01:15:35.907Z,3.20
2019-03-25T01:16:36.116Z,3.20
2019-03-25T01:17:36.188Z,3.00
2019-03-25T01:18:36.369Z,3.60
2019-03-25T01:19:36.531Z,3.30
2019-03-25T01:20:36.674Z,3.70
2019-03-25T01:21:36.874Z,3.50
2019-03-25T01:22:37.033Z,3.30
2019-03-25T01:23:37.236Z,3.40
2019-03-25T01:24:37.267Z,3.30
2019-03-25T01:25:37.476Z,3.90
2019-03-25T01:26:37.666Z,3.80
2019-03-25T01:27:37.842Z,3.40
2019-03-25T01:28:37.979Z,3.90
2019-03-25T01:29:38.172Z,3.70
2019-03-25T01:30:38.381Z,3.90
2019-03-25T01:31:38.570Z,3.40
2019-03-25T01:32:38.807Z,3.60
2019-03-25T01:33:38.856Z,3.60
2019-03-25T01:34:39.036Z,3.50
2019-03-25T01:35:39.191Z,3.30
2019-03-25T01:36:39.389Z,3.30
2019-03-25T01:37:39.605Z,3.30
2019-03-25T01:38:39.811Z,3.10
2019-03-25T01:39:39.912Z,3.20
2019-03-25T01:40:40.139Z,3.20
2019-03-25T01:41:40.209Z,3.50
2019-03-25T01:42:40.410Z,3.30
2019-03-25T01:43:40.626Z,3.50
2019-03-25T01:44:40.734Z,3.20
2019-03-25T01:45:40.804Z,3.10
2019-03-25T01:46:41.004Z,3.40
2019-03-25T01:47:41.230Z,3.20
2019-03-25T01:48:41.428Z,3.10
2019-03-25T01:49:41.651Z,3.40
2019-03-25T01:50:41.747Z,3.50
2019-03-25T01:51:41.918Z,3.70
2019-03-25T01:52:42.202Z,3.20
2019-03-25T01:53:42.269Z,3.10
2019-03-25T01:54:42.549Z,3.20
2019-03-25T01:55:42.550Z,3.20
2019-03-25T01:56:42.783Z,3.30
2019-03-25T01:57:42.862Z,3.20
2019-03-25T01:58:43.060Z,3.10
2019-03-25T01:59:43.258Z,3.00
2019-03-25T02:00:43.503Z,2.60
2019-03-25T02:01:43.611Z,3.30
2019-03-25T02:02:43.709Z,3.20
2019-03-25T02:03:43.888Z,2.80
2019-03-25T02:04:44.065Z,3.00
2019-03-25T02:05:44.242Z,3.30
2019-03-25T02:06:44.419Z,3.00
2019-03-25T02:07:44.624Z,2.80
2019-03-25T02:08:44.844Z,3.20
2019-03-25T02:09:44.892Z,3.00
2019-03-25T02:10:45.066Z,2.80
2019-03-25T02:11:45.235Z,3.20
2019-03-25T02:12:45.486Z,2.80
2019-03-25T02:13:45.567Z,3.10
2019-03-25T02:14:45.811Z,2.80
2019-03-25T02:15:45.959Z,3.50
2019-03-25T02:16:46.062Z,3.00
2019-03-25T02:17:46.207Z,2.60
2019-03-25T02:18:46.462Z,3.00
2019-03-25T02:19:46.546Z,3.00
2019-03-25T02:20:46.773Z,2.60
2019-03-25T02:21:46.813Z,2.70
2019-03-25T02:22:47.255Z,2.90
2019-03-25T02:23:47.163Z,2.80
2019-03-25T02:24:47.335Z,2.60
2019-03-25T02:25:47.390Z,2.60
2019-03-25T02:26:47.634Z,2.60
2019-03-25T02:27:47.762Z,2.60
2019-03-25T02:28:47.886Z,2.50
2019-03-25T02:29:47.967Z,2.80
2019-03-25T02:30:48.161Z,2.60
2019-03-25T02:31:48.335Z,2.90
2019-03-25T02:32:48.543Z,2.70
2019-03-25T02:33:48.699Z,2.40
2019-03-25T02:34:48.914Z,2.90
2019-03-25T02:35:49.114Z,2.60
2019-03-25T02:36:49.227Z,2.90
2019-03-25T02:37:49.325Z,2.80
2019-03-25T02:38:49.519Z,2.60
2019-03-25T02:39:49.585Z,2.70
2019-03-25T02:40:49.745Z,2.90
2019-03-25T02:41:50.031Z,3.00
2019-03-25T02:42:50.128Z,3.00
2019-03-25T02:43:50.275Z,2.80
2019-03-25T02:44:50.480Z,2.70
2019-03-25T02:45:50.721Z,2.30
2019-03-25T02:46:50.809Z,2.90
2019-03-25T02:47:50.931Z,3.60
2019-03-25T02:48:51.089Z,2.60
2019-03-25T02:49:51.236Z,2.50
2019-03-25T02:50:51.388Z,2.70
2019-03-25T02:51:51.520Z,3.00
2019-03-25T02:52:51.705Z,2.70
2019-03-25T02:53:51.906Z,2.90
2019-03-25T02:54:52.119Z,2.80
2019-03-25T02:55:52.331Z,2.60
2019-03-25T02:56:52.501Z,3.00
2019-03-25T02:57:52.657Z,3.20
2019-03-25T02:58:52.799Z,2.80
2019-03-25T02:59:52.963Z,3.00
2019-03-25T03:00:53.197Z,3.00
2019-03-25T03:01:53.229Z,3.30
2019-03-25T03:02:53.464Z,2.90
2019-03-25T03:03:53.560Z,2.70
2019-03-25T03:04:53.764Z,3.00
2019-03-25T03:05:53.981Z,2.60
2019-03-25T03:06:54.184Z,3.00
2019-03-25T03:07:54.350Z,3.00
2019-03-25T03:08:54.552Z,2.80
2019-03-25T03:09:54.650Z,2.90
2019-03-25T03:10:54.830Z,3.00
2019-03-25T03:11:55.022Z,2.70
2019-03-25T03:12:55.078Z,2.90
2019-03-25T03:13:55.268Z,3.00
2019-03-25T03:14:55.411Z,2.90
2019-03-25T03:15:55.521Z,3.30
2019-03-25T03:16:55.716Z,3.20
2019-03-25T03:17:55.901Z,3.90
2019-03-25T03:18:56.086Z,2.80
2019-03-25T03:19:56.219Z,3.00
2019-03-25T03:20:56.380Z,3.50
2019-03-25T03:21:56.566Z,3.50
2019-03-25T03:22:56.795Z,3.70
2019-03-25T03:23:56.878Z,3.40
2019-03-25T03:24:56.937Z,3.30
2019-03-25T03:25:58.347Z,3.40
2019-03-25T03:26:57.293Z,3.40
2019-03-25T03:27:57.487Z,3.70
2019-03-25T03:28:57.687Z,3.30
2019-03-25T03:29:57.894Z,3.50
2019-03-25T03:30:58.022Z,3.10
2019-03-25T03:31:58.059Z,3.20
2019-03-25T03:32:58.250Z,3.00
2019-03-25T03:33:58.469Z,3.70
2019-03-25T03:34:58.596Z,3.10
2019-03-25T03:35:58.762Z,2.90
2019-03-25T03:36:58.966Z,3.20
2019-03-25T03:37:59.119Z,2.90
2019-03-25T03:38:59.284Z,3.30
2019-03-25T03:39:59.484Z,3.30
2019-03-25T03:40:59.749Z,2.90
2019-03-25T03:41:59.758Z,3.20
2019-03-25T03:42:59.909Z,3.70
2019-03-25T03:44:00.745Z,3.40
2019-03-25T03:45:00.436Z,3.40
2019-03-25T03:46:00.466Z,3.60
2019-03-25T03:47:00.502Z,2.90
2019-03-25T03:48:00.691Z,3.20
2019-03-25T03:49:00.854Z,3.10
2019-03-25T03:50:01.046Z,3.30
2019-03-25T03:51:01.273Z,3.20
2019-03-25T03:52:01.460Z,3.40
2019-03-25T03:53:01.650Z,3.40
2019-03-25T03:54:01.844Z,3.60
2019-03-25T03:55:02.012Z,3.40
2019-03-25T03:56:12.868Z,3.30
2019-03-25T03:57:02.352Z,3.70
2019-03-25T03:58:02.532Z,3.00
2019-03-25T03:59:02.736Z,3.50
2019-03-25T04:00:02.817Z,3.30
2019-03-25T04:01:02.988Z,4.30
2019-03-25T04:02:03.164Z,3.60
2019-03-25T04:03:03.352Z,3.10
2019-03-25T04:04:03.568Z,3.40
2019-03-25T04:05:03.771Z,3.30
2019-03-25T04:06:03.999Z,3.60
2019-03-25T04:07:04.183Z,3.30
2019-03-25T04:08:04.349Z,4.50
2019-03-25T04:09:04.520Z,3.50
2019-03-25T04:10:04.725Z,3.90
2019-03-25T04:11:04.895Z,3.70
2019-03-25T04:12:05.062Z,3.80
2019-03-25T04:13:05.259Z,4.40
2019-03-25T04:14:05.429Z,4.40
2019-03-25T04:15:05.759Z,4.80
2019-03-25T04:16:05.846Z,3.80
2019-03-25T04:17:06.064Z,3.90
2019-03-25T04:18:06.222Z,3.80
2019-03-25T04:19:06.454Z,3.90
2019-03-25T04:20:06.539Z,3.80
2019-03-25T04:21:06.735Z,4.40
2019-03-25T04:22:06.804Z,4.00
2019-03-25T04:23:06.950Z,4.20
2019-03-25T04:24:07.183Z,4.40
2019-03-25T04:25:07.383Z,4.50
2019-03-25T04:26:07.434Z,4.10
2019-03-25T04:27:07.598Z,3.70
2019-03-25T04:28:07.776Z,4.70
2019-03-25T04:29:07.972Z,4.00
2019-03-25T04:30:08.190Z,4.10
2019-03-25T04:31:08.223Z,4.20
2019-03-25T04:32:08.383Z,4.60
2019-03-25T04:33:08.603Z,4.30
2019-03-25T04:34:08.761Z,4.40
2019-03-25T04:35:08.938Z,4.40
2019-03-25T04:36:09.094Z,4.60
2019-03-25T04:37:09.288Z,4.90
2019-03-25T04:38:09.471Z,4.50
2019-03-25T04:39:09.715Z,4.20
2019-03-25T04:40:09.804Z,4.50
2019-03-25T04:41:10.008Z,5.10
2019-03-25T04:42:10.089Z,4.50
2019-03-25T04:43:10.183Z,4.50
2019-03-25T04:44:10.358Z,4.90
2019-03-25T04:45:10.516Z,4.20
2019-03-25T04:46:10.691Z,4.50
2019-03-25T04:47:10.875Z,4.10
2019-03-25T04:48:11.108Z,4.30
2019-03-25T04:49:11.367Z,4.60
2019-03-25T04:50:11.630Z,4.70
2019-03-25T04:51:11.703Z,4.10
2019-03-25T04:52:11.851Z,4.40
2019-03-25T04:53:12.038Z,5.00
2019-03-25T04:54:12.183Z,4.60
2019-03-25T04:55:12.264Z,4.70
2019-03-25T04:56:12.467Z,4.60
2019-03-25T04:57:12.672Z,5.00
2019-03-25T04:58:12.927Z,4.50
2019-03-25T04:59:13.008Z,5.00
2019-03-25T05:00:13.132Z,4.50
2019-03-25T05:01:13.250Z,4.70
2019-03-25T05:02:13.362Z,4.60
2019-03-25T05:03:13.579Z,4.70
2019-03-25T05:04:13.812Z,4.90
2019-03-25T05:05:15.821Z,4.50
2019-03-25T05:06:14.098Z,4.60
2019-03-25T05:07:14.185Z,4.80
2019-03-25T05:08:14.286Z,4.90
2019-03-25T05:09:14.498Z,4.60
2019-03-25T05:10:14.691Z,4.60
2019-03-25T05:11:14.871Z,4.60
2019-03-25T05:12:15.285Z,4.70
2019-03-25T05:13:15.184Z,4.60
2019-03-25T05:14:15.366Z,4.70
2019-03-25T05:15:15.570Z,4.70
2019-03-25T05:16:15.703Z,5.20
2019-03-25T05:17:16.045Z,4.70
2019-03-25T05:18:15.920Z,5.00
2019-03-25T05:19:16.087Z,4.70
2019-03-25T05:20:16.250Z,5.40
2019-03-25T05:21:16.421Z,5.10
2019-03-25T05:22:16.559Z,5.40
2019-03-25T05:23:16.691Z,4.80
2019-03-25T05:24:16.828Z,5.30
2019-03-25T05:25:16.976Z,5.70
2019-03-25T05:26:17.081Z,5.80
2019-03-25T05:27:17.222Z,5.20
2019-03-25T05:28:17.313Z,5.10
2019-03-25T05:29:17.569Z,5.90
2019-03-25T05:30:17.678Z,5.50
2019-03-25T05:31:17.805Z,6.10
2019-03-25T05:32:17.984Z,5.40
2019-03-25T05:33:18.133Z,5.50
2019-03-25T05:34:18.258Z,5.60
2019-03-25T05:35:18.405Z,5.50
2019-03-25T05:36:18.572Z,5.80
2019-03-25T05:37:18.708Z,5.70
2019-03-25T05:38:18.907Z,5.70
2019-03-25T05:39:19.079Z,5.90
2019-03-25T05:40:20.689Z,6.20
2019-03-25T05:41:20.059Z,5.80
2019-03-25T05:42:21.198Z,5.80
2019-03-25T05:43:21.240Z,6.20
2019-03-25T05:44:20.694Z,6.30
2019-03-25T05:45:19.930Z,6.30
2019-03-25T05:46:20.157Z,5.90
2019-03-25T05:47:20.378Z,6.20
2019-03-25T05:48:20.486Z,6.60
2019-03-25T05:49:20.734Z,6.00
2019-03-25T05:50:20.913Z,6.00
2019-03-25T05:51:20.934Z,6.60
2019-03-25T05:52:21.105Z,6.80
2019-03-25T05:53:21.235Z,6.80
2019-03-25T05:54:23.380Z,6.10
2019-03-25T05:55:22.864Z,7.00
2019-03-25T05:56:21.759Z,7.30
2019-03-25T05:57:21.880Z,6.50
2019-03-25T05:58:22.019Z,7.10
2019-03-25T05:59:22.149Z,6.80
2019-03-25T06:00:22.285Z,6.60
2019-03-25T06:01:22.415Z,7.20
2019-03-25T06:02:22.512Z,6.60
2019-03-25T06:03:22.736Z,7.20
2019-03-25T06:04:22.885Z,6.90
2019-03-25T06:05:25.108Z,6.50
2019-03-25T06:06:24.520Z,7.00
2019-03-25T06:07:23.297Z,7.00
2019-03-25T06:08:23.477Z,7.40
2019-03-25T06:09:23.585Z,7.50
2019-03-25T06:10:23.798Z,7.20
2019-03-25T06:11:23.974Z,7.50
2019-03-25T06:12:24.106Z,7.20
2019-03-25T06:13:24.341Z,7.60
2019-03-25T06:14:24.407Z,7.40
2019-03-25T06:15:24.645Z,7.00
2019-03-25T06:16:24.944Z,7.50
2019-03-25T06:17:24.961Z,8.30
2019-03-25T06:18:27.030Z,8.90
2019-03-25T06:19:27.238Z,8.00
2019-03-25T06:20:28.210Z,8.10
2019-03-25T06:21:26.655Z,8.10
2019-03-25T06:22:28.895Z,8.30
2019-03-25T06:23:26.299Z,7.80
2019-03-25T06:24:26.804Z,8.00
2019-03-25T06:25:26.464Z,8.10
2019-03-25T06:26:26.136Z,8.00
2019-03-25T06:27:26.389Z,8.00
2019-03-25T06:28:26.471Z,8.60
2019-03-25T06:29:26.695Z,8.70
2019-03-25T06:30:26.798Z,8.00
2019-03-25T06:31:27.055Z,7.50
2019-03-25T06:32:27.050Z,8.50
2019-03-25T06:33:27.222Z,8.20
2019-03-25T06:34:27.421Z,8.40
2019-03-25T06:35:27.599Z,8.30
2019-03-25T06:36:27.762Z,8.50
2019-03-25T06:37:27.855Z,8.30
2019-03-25T06:38:27.978Z,9.10
2019-03-25T06:39:28.093Z,8.80
2019-03-25T06:40:28.216Z,8.20
2019-03-25T06:41:28.298Z,7.80
2019-03-25T06:42:28.413Z,7.80
2019-03-25T06:43:28.584Z,8.00
2019-03-25T06:44:28.654Z,7.60
2019-03-25T06:45:29.305Z,8.00
2019-03-25T06:46:29.008Z,8.40
2019-03-25T06:47:29.128Z,8.80
2019-03-25T06:48:29.349Z,7.70
2019-03-25T06:49:29.316Z,8.10
2019-03-25T06:50:29.446Z,8.70
2019-03-25T06:51:29.490Z,8.60
2019-03-25T06:52:29.670Z,9.10
2019-03-25T06:53:29.873Z,9.30
2019-03-25T06:54:30.083Z,9.00
2019-03-25T06:55:31.070Z,8.80
2019-03-25T06:56:30.303Z,8.60
2019-03-25T06:57:30.513Z,8.90
2019-03-25T06:58:30.693Z,8.90
2019-03-25T06:59:31.035Z,9.00
2019-03-25T07:00:30.986Z,9.10
2019-03-25T07:01:31.265Z,8.20
2019-03-25T07:02:31.310Z,9.40
2019-03-25T07:03:31.411Z,8.50
2019-03-25T07:04:32.079Z,9.10
2019-03-25T07:05:31.723Z,9.00
2019-03-25T07:06:31.931Z,8.40
2019-03-25T07:07:32.061Z,8.50
2019-03-25T07:08:32.249Z,9.20
2019-03-25T07:09:32.400Z,8.70
2019-03-25T07:10:32.547Z,8.30
2019-03-25T07:11:32.901Z,7.60
2019-03-25T07:12:32.903Z,7.80
2019-03-25T07:13:33.087Z,8.10
2019-03-25T07:14:33.256Z,8.40
2019-03-25T07:15:33.485Z,8.00
2019-03-25T07:16:33.528Z,7.60
2019-03-25T07:17:33.704Z,6.70
2019-03-25T07:18:33.867Z,7.30
2019-03-25T07:19:34.047Z,6.50
2019-03-25T07:20:34.245Z,6.90
2019-03-25T07:21:34.426Z,7.00
2019-03-25T07:22:34.615Z,6.70
2019-03-25T07:23:34.846Z,6.60
2019-03-25T07:24:34.891Z,6.50
2019-03-25T07:25:35.092Z,6.90
2019-03-25T07:26:35.668Z,5.90
2019-03-25T07:27:37.011Z,6.20
2019-03-25T07:28:35.512Z,5.90
2019-03-25T07:29:35.624Z,6.10
2019-03-25T07:30:35.739Z,6.00
2019-03-25T07:31:36.026Z,5.60
2019-03-25T07:32:36.008Z,5.20
2019-03-25T07:33:36.240Z,5.40
2019-03-25T07:34:36.432Z,5.00
2019-03-25T07:35:36.474Z,5.20
2019-03-25T07:36:36.719Z,5.40
2019-03-25T07:37:36.897Z,5.00
2019-03-25T07:38:37.029Z,4.80
2019-03-25T07:39:37.263Z,4.50
2019-03-25T07:40:37.356Z,4.60
2019-03-25T07:41:37.588Z,4.50
2019-03-25T07:42:37.824Z,4.60
2019-03-25T07:43:37.852Z,4.60
2019-03-25T07:44:38.078Z,4.40
2019-03-25T07:45:38.327Z,5.10
2019-03-25T07:46:38.474Z,5.80
2019-03-25T07:47:38.589Z,5.70
2019-03-25T07:48:38.816Z,5.20
2019-03-25T07:49:38.920Z,5.70
2019-03-25T07:50:39.146Z,5.10
2019-03-25T07:51:39.689Z,5.10
2019-03-25T07:52:39.330Z,5.00
2019-03-25T07:53:39.552Z,5.10
2019-03-25T07:54:39.695Z,5.40
2019-03-25T07:55:39.838Z,5.10
2019-03-25T07:56:39.947Z,5.40
2019-03-25T07:57:48.186Z,5.60
2019-03-25T07:58:40.216Z,5.60
2019-03-25T07:59:40.344Z,5.90
2019-03-25T08:00:41.724Z,6.00
2019-03-25T08:01:40.727Z,5.80
2019-03-25T08:02:42.004Z,5.80
2019-03-25T08:03:40.982Z,6.20
2019-03-25T08:04:41.650Z,5.90
2019-03-25T08:05:41.222Z,5.60
2019-03-25T08:06:41.459Z,5.30
2019-03-25T08:07:41.561Z,5.90
2019-03-25T08:08:41.798Z,6.40
2019-03-25T08:09:41.901Z,5.60
2019-03-25T08:10:42.175Z,5.70
2019-03-25T08:11:44.796Z,5.70
2019-03-25T08:12:42.468Z,5.40
2019-03-25T08:13:42.587Z,5.70
2019-03-25T08:14:42.708Z,5.60
2019-03-25T08:15:42.764Z,5.30
2019-03-25T08:16:42.973Z,5.70
2019-03-25T08:17:43.207Z,5.90
2019-03-25T08:18:43.312Z,5.70
2019-03-25T08:19:43.408Z,6.20
2019-03-25T08:20:43.587Z,5.30
2019-03-25T08:21:43.796Z,5.30
2019-03-25T08:22:43.939Z,5.00
2019-03-25T08:23:44.069Z,5.60
2019-03-25T08:24:44.191Z,5.30
2019-03-25T08:25:44.375Z,4.90
2019-03-25T08:26:44.563Z,5.20
2019-03-25T08:27:44.701Z,5.00
2019-03-25T08:28:44.784Z,5.30
2019-03-25T08:29:45.031Z,5.10
2019-03-25T08:30:45.140Z,5.30
2019-03-25T08:31:45.238Z,4.60
2019-03-25T08:32:45.462Z,4.70
2019-03-25T08:33:45.562Z,4.60
2019-03-25T08:34:45.767Z,4.70
2019-03-25T08:35:45.964Z,4.50
2019-03-25T08:36:46.323Z,4.60
2019-03-25T08:37:46.370Z,5.10
2019-03-25T08:38:46.590Z,5.10
2019-03-25T08:39:46.762Z,4.80
2019-03-25T08:40:46.964Z,4.40
2019-03-25T08:41:47.176Z,4.20
2019-03-25T08:42:47.276Z,4.40
2019-03-25T08:43:50.208Z,3.80
2019-03-25T08:44:47.637Z,4.10
2019-03-25T08:45:47.989Z,4.10
2019-03-25T08:46:48.035Z,4.20
2019-03-25T08:47:48.248Z,4.30
2019-03-25T08:48:48.449Z,4.30
2019-03-25T08:49:48.591Z,4.30
2019-03-25T08:50:49.364Z,4.30
2019-03-25T08:51:48.849Z,4.30
2019-03-25T08:52:49.051Z,4.10
2019-03-25T08:53:49.173Z,4.30
2019-03-25T08:54:49.284Z,3.80
2019-03-25T08:55:49.512Z,4.10
2019-03-25T08:56:51.018Z,4.20
2019-03-25T08:57:49.840Z,4.10
2019-03-25T08:58:50.096Z,4.10
2019-03-25T08:59:50.243Z,3.80
2019-03-25T09:00:50.467Z,3.40
2019-03-25T09:01:50.756Z,3.50
2019-03-25T09:02:50.721Z,3.30
2019-03-25T09:03:50.828Z,3.40
2019-03-25T09:04:50.958Z,3.30
2019-03-25T09:05:51.565Z,3.40
2019-03-25T09:06:51.818Z,3.50
2019-03-25T09:07:51.357Z,3.70
2019-03-25T09:08:51.455Z,3.60
2019-03-25T09:09:51.703Z,3.10
2019-03-25T09:10:51.852Z,2.90
2019-03-25T09:11:51.984Z,2.80
2019-03-25T09:12:52.107Z,3.00
2019-03-25T09:13:52.249Z,3.30
2019-03-25T09:14:52.841Z,3.00
2019-03-25T09:15:52.534Z,3.20
2019-03-25T09:16:52.738Z,2.70
2019-03-25T09:17:52.898Z,2.80
2019-03-25T09:18:53.080Z,2.70
2019-03-25T09:19:53.865Z,2.40
2019-03-25T09:20:54.288Z,2.40
2019-03-25T09:21:55.284Z,2.00
2019-03-25T09:22:53.797Z,2.30
2019-03-25T09:23:54.195Z,2.00
2019-03-25T09:24:54.241Z,2.00
2019-03-25T09:25:54.271Z,2.20
2019-03-25T09:26:54.475Z,2.40
2019-03-25T09:27:54.951Z,2.00
2019-03-25T09:28:54.847Z,2.20
2019-03-25T09:29:55.427Z,2.20
2019-03-25T09:30:55.183Z,2.00
2019-03-25T09:31:55.368Z,2.50
2019-03-25T09:32:55.557Z,2.10
2019-03-25T09:33:55.817Z,2.10
2019-03-25T09:34:55.977Z,2.00
2019-03-25T09:35:56.104Z,2.00
2019-03-25T09:36:56.258Z,2.10
2019-03-25T09:37:56.522Z,2.20
2019-03-25T09:38:56.649Z,2.30
2019-03-25T09:39:56.867Z,2.20
2019-03-25T09:40:57.050Z,1.90
2019-03-25T09:41:57.154Z,2.40
2019-03-25T09:42:57.261Z,2.20
2019-03-25T09:43:57.341Z,2.20
2019-03-25T09:44:57.603Z,2.40
2019-03-25T09:45:57.853Z,2.40
2019-03-25T09:46:57.865Z,2.30
2019-03-25T09:47:57.997Z,2.00
2019-03-25T09:48:58.106Z,1.90
2019-03-25T09:49:58.303Z,2.00
2019-03-25T09:50:58.506Z,1.80
2019-03-25T09:51:58.710Z,1.90
2019-03-25T09:52:58.815Z,1.50
2019-03-25T09:53:59.601Z,1.80
2019-03-25T09:54:59.213Z,1.50
2019-03-25T09:55:59.392Z,1.60
2019-03-25T09:56:59.570Z,1.60
2019-03-25T09:57:59.783Z,1.60
2019-03-25T09:59:00.002Z,1.60
2019-03-25T10:00:00.349Z,1.50
2019-03-25T10:01:00.400Z,1.70
2019-03-25T10:02:00.585Z,1.40
2019-03-25T10:03:00.818Z,1.40
2019-03-25T10:04:00.942Z,1.20
2019-03-25T10:05:02.310Z,1.60
2019-03-25T10:06:01.190Z,1.70
2019-03-25T10:07:01.326Z,1.20
2019-03-25T10:08:01.383Z,1.60
2019-03-25T10:09:01.861Z,1.50
2019-03-25T10:10:02.010Z,1.20
2019-03-25T10:11:01.986Z,1.40
2019-03-25T10:12:02.122Z,1.40
2019-03-25T10:13:02.215Z,1.10
2019-03-25T10:14:02.378Z,1.20
2019-03-25T10:15:02.467Z,1.20
2019-03-25T10:16:02.746Z,1.10
2019-03-25T10:17:03.021Z,1.20
2019-03-25T10:18:03.013Z,1.20
2019-03-25T10:19:03.194Z,1.20
2019-03-25T10:20:03.470Z,1.40
2019-03-25T10:21:03.581Z,1.30
2019-03-25T10:22:03.904Z,1.10
2019-03-25T10:23:03.945Z,1.30
2019-03-25T10:24:04.135Z,1.40
2019-03-25T10:25:04.308Z,1.40
2019-03-25T10:26:04.660Z,1.10
2019-03-25T10:27:04.784Z,1.60
2019-03-25T10:28:04.814Z,1.40
2019-03-25T10:29:04.877Z,1.20
2019-03-25T10:30:05.061Z,1.50
2019-03-25T10:31:05.258Z,1.50
2019-03-25T10:32:05.557Z,1.10
2019-03-25T10:33:06.735Z,1.20
2019-03-25T10:34:05.986Z,1.10
2019-03-25T10:35:06.111Z,1.40
2019-03-25T10:36:06.279Z,1.30
2019-03-25T10:37:06.530Z,1.20
2019-03-25T10:38:10.693Z,1.30
2019-03-25T10:39:07.001Z,1.50
2019-03-25T10:40:07.106Z,1.10
2019-03-25T10:41:07.329Z,1.60
2019-03-25T10:42:07.914Z,2.40
2019-03-25T10:43:07.570Z,1.80
2019-03-25T10:44:07.727Z,1.90
2019-03-25T10:45:07.757Z,1.30
2019-03-25T10:46:07.963Z,1.20
2019-03-25T10:47:08.061Z,1.20
2019-03-25T10:48:08.294Z,1.20
2019-03-25T10:49:08.469Z,1.30
2019-03-25T10:50:08.663Z,1.10
2019-03-25T10:51:09.765Z,1.20
2019-03-25T10:52:09.181Z,1.10
2019-03-25T10:53:09.318Z,1.10
2019-03-25T10:54:09.429Z,1.30
2019-03-25T10:55:09.598Z,1.20
2019-03-25T10:56:09.794Z,1.30
2019-03-25T10:57:09.981Z,1.40
2019-03-25T10:58:10.216Z,1.50
2019-03-25T10:59:10.370Z,1.40
2019-03-25T11:00:10.502Z,1.20
2019-03-25T11:01:10.511Z,1.60
2019-03-25T11:02:10.731Z,1.40
2019-03-25T11:03:11.017Z,1.40
2019-03-25T11:04:11.194Z,1.30
2019-03-25T11:05:11.292Z,1.40
2019-03-25T11:06:11.506Z,1.30
2019-03-25T11:07:11.736Z,1.70
2019-03-25T11:08:11.836Z,2.20
2019-03-25T11:09:11.936Z,1.60
2019-03-25T11:10:12.154Z,2.10
2019-03-25T11:11:12.296Z,1.60
2019-03-25T11:12:12.414Z,1.80
2019-03-25T11:13:12.547Z,1.60
2019-03-25T11:14:12.737Z,1.30
2019-03-25T11:15:12.860Z,1.30
2019-03-25T11:16:13.146Z,1.40
2019-03-25T11:17:13.369Z,1.10
2019-03-25T11:18:13.715Z,1.70
2019-03-25T11:19:13.823Z,1.30
2019-03-25T11:20:13.847Z,1.30
2019-03-25T11:21:14.067Z,1.20
2019-03-25T11:22:14.102Z,1.60
2019-03-25T11:23:14.263Z,1.70
2019-03-25T11:24:15.249Z,1.80
2019-03-25T11:25:14.623Z,1.60
2019-03-25T11:26:14.880Z,1.50
2019-03-25T11:27:14.862Z,1.30
2019-03-25T11:28:15.082Z,1.20
2019-03-25T11:29:15.440Z,0.70
2019-03-25T11:30:15.493Z,0.80
2019-03-25T11:31:15.618Z,0.60
2019-03-25T11:32:15.859Z,0.70
2019-03-25T11:33:15.984Z,0.70
2019-03-25T11:34:16.144Z,0.40
2019-03-25T11:35:16.253Z,0.60
2019-03-25T11:36:16.577Z,0.30
2019-03-25T11:37:16.598Z,0.70
2019-03-25T11:38:16.717Z,0.50
2019-03-25T11:39:16.928Z,0.50
2019-03-25T11:40:17.043Z,0.60
2019-03-25T11:41:17.217Z,0.50
2019-03-25T11:42:17.336Z,0.40
2019-03-25T11:43:17.550Z,0.80
2019-03-25T11:44:17.768Z,0.50
2019-03-25T11:45:17.952Z,0.40
2019-03-25T11:46:18.169Z,0.50
2019-03-25T11:47:18.263Z,0.60
2019-03-25T11:48:18.462Z,0.60
2019-03-25T11:49:18.730Z,0.40
2019-03-25T11:50:18.826Z,0.40
2019-03-25T11:51:19.097Z,0.60
2019-03-25T11:52:19.182Z,0.70
2019-03-25T11:53:19.390Z,0.50
2019-03-25T11:54:19.611Z,0.50
2019-03-25T11:55:19.807Z,0.70
2019-03-25T11:56:20.070Z,0.70
2019-03-25T11:57:20.098Z,0.50
2019-03-25T11:58:20.280Z,0.60
2019-03-25T11:59:20.480Z,0.70
2019-03-25T12:00:20.712Z,0.70
2019-03-25T12:01:20.782Z,0.50
2019-03-25T12:02:21.045Z,0.50
2019-03-25T12:03:21.178Z,0.50
2019-03-25T12:04:21.280Z,0.70
2019-03-25T12:05:22.786Z,0.60
2019-03-25T12:06:21.682Z,0.50
2019-03-25T12:07:21.829Z,0.60
2019-03-25T12:08:22.480Z,0.70
2019-03-25T12:09:22.206Z,0.50
2019-03-25T12:10:22.210Z,0.70
2019-03-25T12:11:23.767Z,0.60
2019-03-25T12:12:22.687Z,0.60
2019-03-25T12:13:22.770Z,0.60
2019-03-25T12:14:22.890Z,0.40
2019-03-25T12:15:23.023Z,0.40
2019-03-25T12:16:23.227Z,0.50
2019-03-25T12:17:23.381Z,0.60
2019-03-25T12:18:23.994Z,0.80
2019-03-25T12:19:23.754Z,0.60
2019-03-25T12:20:23.935Z,0.60
2019-03-25T12:21:24.118Z,0.50
2019-03-25T12:22:24.269Z,0.50
2019-03-25T12:23:26.510Z,0.80
2019-03-25T12:24:24.557Z,0.40
2019-03-25T12:25:24.777Z,0.60
2019-03-25T12:26:25.273Z,0.40
2019-03-25T12:27:25.083Z,0.50
2019-03-25T12:28:25.170Z,0.40
2019-03-25T12:29:30.139Z,0.60
2019-03-25T12:30:25.462Z,0.80
2019-03-25T12:31:25.571Z,0.70
2019-03-25T12:32:26.129Z,0.60
2019-03-25T12:33:26.222Z,0.60
2019-03-25T12:34:26.330Z,0.60
2019-03-25T12:35:26.298Z,0.70
2019-03-25T12:36:26.373Z,0.60
2019-03-25T12:37:26.594Z,0.70
2019-03-25T12:38:27.888Z,0.60
2019-03-25T12:39:26.961Z,0.70
2019-03-25T12:40:27.152Z,0.60
2019-03-25T12:41:27.187Z,0.70
2019-03-25T12:42:27.307Z,0.30
2019-03-25T12:43:27.458Z,0.40
2019-03-25T12:44:27.840Z,0.50
2019-03-25T12:45:28.497Z,0.60
2019-03-25T12:46:27.812Z,0.40
2019-03-25T12:47:27.860Z,0.50
2019-03-25T12:48:28.051Z,0.80
2019-03-25T12:49:28.144Z,0.40
2019-03-25T12:50:29.443Z,0.30
2019-03-25T12:51:28.673Z,0.50
2019-03-25T12:52:28.797Z,0.40
2019-03-25T12:53:28.915Z,0.60
2019-03-25T12:54:29.167Z,0.50
2019-03-25T12:55:29.269Z,0.60
2019-03-25T12:56:29.548Z,0.40
2019-03-25T12:57:29.713Z,0.70
2019-03-25T12:58:30.034Z,0.50
2019-03-25T12:59:40.466Z,0.50
2019-03-25T13:00:30.359Z,0.30
2019-03-25T13:01:30.383Z,0.60
2019-03-25T13:02:30.521Z,0.40
2019-03-25T13:03:30.635Z,0.50
2019-03-25T13:04:30.702Z,0.60
2019-03-25T13:05:30.917Z,0.50
2019-03-25T13:06:31.143Z,0.60
2019-03-25T13:07:31.232Z,0.50
2019-03-25T13:08:33.292Z,0.40
2019-03-25T13:09:31.722Z,0.50
2019-03-25T13:10:32.737Z,0.90
2019-03-25T13:11:31.959Z,0.60
2019-03-25T13:12:32.520Z,0.60
2019-03-25T13:13:32.326Z,0.70
2019-03-25T13:14:35.018Z,0.70
2019-03-25T13:15:32.510Z,0.60
2019-03-25T13:16:32.800Z,0.60
2019-03-25T13:17:32.940Z,0.50
2019-03-25T13:18:33.009Z,0.50
2019-03-25T13:19:33.133Z,0.70
2019-03-25T13:20:33.256Z,0.50